地図

経路データ

SID SEASON NUMBER BASIN SUBBASIN NAME ISO_TIME NATURE LAT LON WMO_WIND WMO_PRES WMO_AGENCY TRACK_TYPE DIST2LAND LANDFALL IFLAG USA_AGENCY USA_ATCF_ID USA_LAT USA_LON USA_RECORD USA_STATUS USA_WIND USA_PRES USA_SSHS USA_R34_NE USA_R34_SE USA_R34_SW USA_R34_NW USA_R50_NE USA_R50_SE USA_R50_SW USA_R50_NW USA_R64_NE USA_R64_SE USA_R64_SW USA_R64_NW USA_POCI USA_ROCI USA_RMW USA_EYE TOKYO_LAT TOKYO_LON TOKYO_GRADE TOKYO_WIND TOKYO_PRES TOKYO_R50_DIR TOKYO_R50_LONG TOKYO_R50_SHORT TOKYO_R30_DIR TOKYO_R30_LONG TOKYO_R30_SHORT TOKYO_LAND CMA_LAT CMA_LON CMA_CAT CMA_WIND CMA_PRES HKO_LAT HKO_LON HKO_CAT HKO_WIND HKO_PRES NEWDELHI_LAT NEWDELHI_LON NEWDELHI_GRADE NEWDELHI_WIND NEWDELHI_PRES NEWDELHI_CI NEWDELHI_DP NEWDELHI_POCI REUNION_LAT REUNION_LON REUNION_TYPE REUNION_WIND REUNION_PRES REUNION_TNUM REUNION_CI REUNION_RMW REUNION_R34_NE REUNION_R34_SE REUNION_R34_SW REUNION_R34_NW REUNION_R50_NE REUNION_R50_SE REUNION_R50_SW REUNION_R50_NW REUNION_R64_NE REUNION_R64_SE REUNION_R64_SW REUNION_R64_NW BOM_LAT BOM_LON BOM_TYPE BOM_WIND BOM_PRES BOM_TNUM BOM_CI BOM_RMW BOM_R34_NE BOM_R34_SE BOM_R34_SW BOM_R34_NW BOM_R50_NE BOM_R50_SE BOM_R50_SW BOM_R50_NW BOM_R64_NE BOM_R64_SE BOM_R64_SW BOM_R64_NW BOM_ROCI BOM_POCI BOM_EYE BOM_POS_METHOD BOM_PRES_METHOD NADI_LAT NADI_LON NADI_CAT NADI_WIND NADI_PRES WELLINGTON_LAT WELLINGTON_LON WELLINGTON_WIND WELLINGTON_PRES DS824_LAT DS824_LON DS824_STAGE DS824_WIND DS824_PRES TD9636_LAT TD9636_LON TD9636_STAGE TD9636_WIND TD9636_PRES TD9635_LAT TD9635_LON TD9635_WIND TD9635_PRES TD9635_ROCI NEUMANN_LAT NEUMANN_LON NEUMANN_CLASS NEUMANN_WIND NEUMANN_PRES MLC_LAT MLC_LON MLC_CLASS MLC_WIND MLC_PRES USA_GUST BOM_GUST BOM_GUST_PER REUNION_GUST REUNION_GUST_PER USA_SEAHGT USA_SEARAD_NE USA_SEARAD_SE USA_SEARAD_SW USA_SEARAD_NW STORM_SPEED STORM_DIR
1971212N12262 1971 82 EP MM ILSA 1971-07-31 00:00:00 TS 11.9000 -98.2000 25 hurdat_epa main 448 448 O________OO___ hurdat_epa EP091971 11.9000 -98.2000 TD 25 -1 11.9000 -98.2000 TC 25 11.9000 -98.2000 1 10 276
1971212N12262 1971 82 EP MM ILSA 1971-07-31 03:00:00 TS 11.9549 -98.7112 main 458 458 P________PP___ EP091971 11.9527 -98.7099 TD 25 -1 11.9527 -98.7099 TC 25 11.9638 -98.7162 1 10 276
1971212N12262 1971 82 EP MM ILSA 1971-07-31 06:00:00 TS 12.0043 -99.2032 25 hurdat_epa main 472 472 O________OP___ hurdat_epa EP091971 12.0000 -99.2000 TD 25 -1 12.0000 -99.2000 TC 25 12.0216 -99.2161 1 9 276
1971212N12262 1971 82 EP MM ILSA 1971-07-31 09:00:00 TS 12.0476 -99.6626 main 492 482 P________PP___ EP091971 12.0424 -99.6576 TD 25 -1 12.0424 -99.6576 TC 25 12.0686 -99.6830 1 9 276
1971212N12262 1971 82 EP MM ILSA 1971-07-31 12:00:00 TS 12.1000 -100.100 25 hurdat_epa main 497 497 O________OO___ hurdat_epa EP091971 12.1000 -100.100 TD 25 -1 12.1000 -100.100 TC 25 12.1000 -100.100 1 9 279
1971212N12262 1971 82 EP MM ILSA 1971-07-31 15:00:00 TS 12.1778 -100.539 main 502 502 P________PP___ EP091971 12.1925 -100.557 TD 25 -1 12.1925 -100.557 TC 25 12.1193 -100.464 1 9 282
1971212N12262 1971 82 EP MM ILSA 1971-07-31 18:00:00 TS 12.2726 -100.965 25 hurdat_epa main 512 512 O________OP___ hurdat_epa EP091971 12.3000 -101.000 TD 25 -1 12.3000 -101.000 TC 25 12.1628 -100.825 1 8 282
1971212N12262 1971 82 EP MM ILSA 1971-07-31 21:00:00 TS 12.3325 -101.310 main 521 514 P________PP___ EP091971 12.3469 -101.326 TD 25 -1 12.3469 -101.326 TC 25 12.2751 -101.249 1 8 286
1971212N12262 1971 82 EP MM ILSA 1971-08-01 00:00:00 TS 12.5000 -101.800 25 hurdat_epa main 521 518 O________OO___ hurdat_epa EP091971 12.5000 -101.800 TD 25 -1 12.5000 -101.800 TC 25 12.5000 -101.800 2 14 293
1971212N12262 1971 82 EP MM ILSA 1971-08-01 03:00:00 TS 12.8864 -102.673 main 521 511 P________PP___ EP091971 12.8830 -102.682 TD 35 0 12.8830 -102.682 TC 35 12.8996 -102.634 2 20 296
1971212N12262 1971 82 EP MM ILSA 1971-08-01 06:00:00 TS 13.4012 -103.678 45 hurdat_epa main 518 500 O________OP___ hurdat_epa EP091971 13.4000 -103.700 TS 45 0 13.4000 -103.700 TC 45 13.4062 -103.589 2 22 299
1971212N12262 1971 82 EP MM ILSA 1971-08-01 09:00:00 TS 13.9459 -104.610 main 503 471 P________PP___ EP091971 13.9426 -104.625 TS 60 0 13.9426 -104.625 TC 60 13.9592 -104.550 2 20 303
1971212N12262 1971 82 EP MM ILSA 1971-08-01 12:00:00 TS 14.5000 -105.400 75 hurdat_epa main 471 449 O________OO___ hurdat_epa EP091971 14.5000 -105.400 HU 75 1 14.5000 -105.400 TC 75 14.5000 -105.400 4 17 310
1971212N12262 1971 82 EP MM ILSA 1971-08-01 15:00:00 TS 15.0213 -105.923 main 449 432 P________PP___ EP091971 15.0294 -105.911 HU 75 1 15.0294 -105.911 TC 75 14.9890 -105.972 4 13 318
1971212N12262 1971 82 EP MM ILSA 1971-08-01 18:00:00 TS 15.4904 -106.324 75 hurdat_epa main 432 420 O________OP___ hurdat_epa EP091971 15.5000 -106.300 HU 75 1 15.5000 -106.300 TC 75 15.4521 -106.421 4 12 317
1971212N12262 1971 82 EP MM ILSA 1971-08-01 21:00:00 TS 15.8948 -106.756 main 425 414 P________PP___ EP091971 15.9023 -106.743 HU 75 1 15.9023 -106.743 TC 75 15.8644 -106.810 4 11 310
1971212N12262 1971 82 EP MM ILSA 1971-08-02 00:00:00 TS 16.2000 -107.200 75 hurdat_epa main 421 418 O________OO___ hurdat_epa EP091971 16.2000 -107.200 HU 75 1 16.2000 -107.200 TC 75 16.2000 -107.200 4 10 299
1971212N12262 1971 82 EP MM ILSA 1971-08-02 03:00:00 TS 16.3889 -107.695 main 438 438 P________PP___ EP091971 16.3799 -107.693 HU 75 1 16.3799 -107.693 TC 75 16.4250 -107.703 4 10 288
1971212N12262 1971 82 EP MM ILSA 1971-08-02 06:00:00 TS 16.5150 -108.203 75 hurdat_epa main 468 468 O________OP___ hurdat_epa EP091971 16.5000 -108.200 HU 75 1 16.5000 -108.200 TC 75 16.5751 -108.216 4 10 285
1971212N12262 1971 82 EP MM ILSA 1971-08-02 09:00:00 TS 16.6575 -108.710 main 491 491 P________PP___ EP091971 16.6499 -108.708 HU 75 1 16.6499 -108.708 TC 75 16.6876 -108.721 4 10 287
1971212N12262 1971 82 EP MM ILSA 1971-08-02 12:00:00 TS 16.8000 -109.200 75 hurdat_epa main 524 524 O________OO___ hurdat_epa EP091971 16.8000 -109.200 HU 75 1 16.8000 -109.200 TC 75 16.8000 -109.200 4 10 288
1971212N12262 1971 82 EP MM ILSA 1971-08-02 15:00:00 TS 16.9475 -109.671 main 560 553 P________PP___ EP091971 16.9424 -109.673 HU 75 1 16.9424 -109.673 TC 75 16.9677 -109.665 4 9 290
1971212N12262 1971 82 EP MM ILSA 1971-08-02 18:00:00 TS 17.1085 -110.099 75 hurdat_epa main 583 583 O________OP___ hurdat_epa EP091971 17.1000 -110.100 HU 75 1 17.1000 -110.100 TC 75 17.1424 -110.097 4 9 295
1971212N12262 1971 82 EP MM ILSA 1971-08-02 21:00:00 TS 17.3041 -110.486 main 607 607 P________PP___ EP091971 17.3000 -110.487 HU 82 1 17.3000 -110.487 TC 82 17.3209 -110.481 4 8 300
1971212N12262 1971 82 EP MM ILSA 1971-08-03 00:00:00 TS 17.5000 -110.800 90 hurdat_epa main 609 600 O________OO___ hurdat_epa EP091971 17.5000 -110.800 HU 90 2 17.5000 -110.800 TC 90 17.5000 -110.800 4 6 304
1971212N12262 1971 82 EP MM ILSA 1971-08-03 03:00:00 TS 17.6557 -111.034 main 590 583 P________PP___ EP091971 17.6499 -111.030 HU 95 2 17.6499 -111.030 TC 95 17.6786 -111.048 4 5 309
1971212N12262 1971 82 EP MM ILSA 1971-08-03 06:00:00 TS 17.8114 -111.207 100 hurdat_epa main 583 564 O________OP___ hurdat_epa EP091971 17.8000 -111.200 HU 100 3 17.8000 -111.200 TC 100 17.8570 -111.233 4 5 318
1971212N12262 1971 82 EP MM ILSA 1971-08-03 09:00:00 TS 18.0064 -111.361 main 567 548 P________PP___ EP091971 18.0000 -111.358 HU 100 3 18.0000 -111.358 TC 100 18.0319 -111.376 4 5 324
1971212N12262 1971 82 EP MM ILSA 1971-08-03 12:00:00 TS 18.2000 -111.500 100 hurdat_epa main 548 540 O________OO___ hurdat_epa EP091971 18.2000 -111.500 HU 100 3 18.2000 -111.500 TC 100 18.2000 -111.500 4 4 322
1971212N12262 1971 82 EP MM ILSA 1971-08-03 15:00:00 TS 18.3566 -111.654 main 533 522 P________PP___ EP091971 18.3575 -111.658 HU 90 2 18.3575 -111.658 TC 90 18.3530 -111.640 4 4 317
1971212N12262 1971 82 EP MM ILSA 1971-08-03 18:00:00 TS 18.5000 -111.793 80 hurdat_epa main 526 515 O________OP___ hurdat_epa EP091971 18.5000 -111.800 HU 80 1 18.5000 -111.800 TC 80 18.4999 -111.765 4 4 321
1971212N12262 1971 82 EP MM ILSA 1971-08-03 21:00:00 TS 18.6493 -111.903 main 519 503 P________PP___ EP091971 18.6500 -111.908 HU 72 1 18.6500 -111.908 TC 72 18.6468 -111.883 4 4 326
1971212N12262 1971 82 EP MM ILSA 1971-08-04 00:00:00 TS 18.8000 -112.000 65 978 hurdat_epa main 503 493 O________OO___ hurdat_epa EP091971 18.8000 -112.000 HU 65 978 1 18.8000 -112.000 TC 65 978 18.8000 -112.000 4 3 328
1971212N12262 1971 82 EP MM ILSA 1971-08-04 03:00:00 TS 18.9426 -112.095 main 497 482 P________PP___ EP091971 18.9425 -112.093 HU 65 1 18.9425 -112.093 TC 65 18.9433 -112.105 4 4 328
1971212N12262 1971 82 EP MM ILSA 1971-08-04 06:00:00 TS 19.0995 -112.203 65 hurdat_epa main 482 467 O________OP___ hurdat_epa EP091971 19.1000 -112.200 HU 65 1 19.1000 -112.200 TC 65 19.0973 -112.213 4 4 325
1971212N12262 1971 82 EP MM ILSA 1971-08-04 09:00:00 TS 19.2775 -112.342 main 467 460 P________PP___ EP091971 19.2775 -112.343 HU 65 1 19.2775 -112.343 TC 65 19.2776 -112.340 4 5 325
1971212N12262 1971 82 EP MM ILSA 1971-08-04 12:00:00 TS 19.5000 -112.500 65 hurdat_epa main 460 438 O________OO___ hurdat_epa EP091971 19.5000 -112.500 HU 65 1 19.5000 -112.500 TC 65 19.5000 -112.500 4 6 332
1971212N12262 1971 82 EP MM ILSA 1971-08-04 15:00:00 TS 19.7822 -112.628 main 438 426 P________PP___ EP091971 19.7774 -112.620 HU 65 1 19.7774 -112.620 TC 65 19.8016 -112.661 4 7 334
1971212N12262 1971 82 EP MM ILSA 1971-08-04 18:00:00 TS 20.1083 -112.813 65 hurdat_epa main 426 417 O________OP___ hurdat_epa EP091971 20.1000 -112.800 HU 65 1 20.1000 -112.800 TC 65 20.1414 -112.865 4 8 327
1971212N12262 1971 82 EP MM ILSA 1971-08-04 21:00:00 TS 20.4690 -113.099 main 417 417 P________PP___ EP091971 20.4649 -113.090 HU 65 1 20.4649 -113.090 TC 65 20.4856 -113.137 4 9 317
1971212N12262 1971 82 EP MM ILSA 1971-08-05 00:00:00 TS 20.8000 -113.500 65 hurdat_epa main 430 430 O________OO___ hurdat_epa EP091971 20.8000 -113.500 HU 65 1 20.8000 -113.500 TC 65 20.8000 -113.500 4 10 303
1971212N12262 1971 82 EP MM ILSA 1971-08-05 03:00:00 TS 21.0245 -114.006 main 451 447 P________PP___ EP091971 21.0225 -114.013 HU 65 1 21.0225 -114.013 TC 65 21.0324 -113.978 4 11 292
1971212N12262 1971 82 EP MM ILSA 1971-08-05 06:00:00 TS 21.2061 -114.589 65 hurdat_epa main 467 467 O________OP___ hurdat_epa EP091971 21.2000 -114.600 HU 65 1 21.2000 -114.600 TC 65 21.2306 -114.546 4 12 289
1971212N12262 1971 82 EP MM ILSA 1971-08-05 09:00:00 TS 21.4026 -115.187 main 486 486 P________PP___ EP091971 21.3999 -115.193 HU 65 1 21.3999 -115.193 TC 65 21.4135 -115.166 4 12 289
1971212N12262 1971 82 EP MM ILSA 1971-08-05 12:00:00 TS 21.6000 -115.800 65 hurdat_epa main 512 512 O________OO___ hurdat_epa EP091971 21.6000 -115.800 HU 65 1 21.6000 -115.800 TC 65 21.6000 -115.800 4 12 289
1971212N12262 1971 82 EP MM ILSA 1971-08-05 15:00:00 TS 21.7973 -116.400 main 544 544 P________PP___ EP091971 21.7923 -116.400 HU 55 0 21.7923 -116.400 TC 55 21.8174 -116.397 4 12 290
1971212N12262 1971 82 EP MM ILSA 1971-08-05 18:00:00 TS 22.0084 -117.000 45 988 hurdat_epa main 580 580 O________OP___ hurdat_epa EP091971 22.0000 -117.000 TS 45 988 0 22.0000 -117.000 TC 45 988 22.0420 -117.000 4 12 292
1971212N12262 1971 82 EP MM ILSA 1971-08-05 21:00:00 TS 22.2539 -117.601 main 616 616 P________PP___ EP091971 22.2498 -117.600 TS 45 0 22.2498 -117.600 TC 45 22.2705 -117.604 4 12 294
1971212N12262 1971 82 EP MM ILSA 1971-08-06 00:00:00 TS 22.5000 -118.200 45 hurdat_epa main 649 649 O________OO___ hurdat_epa EP091971 22.5000 -118.200 TS 45 0 22.5000 -118.200 TC 45 22.5000 -118.200 2 12 292
1971212N12262 1971 82 EP MM ILSA 1971-08-06 03:00:00 TS 22.7088 -118.802 main 670 668 P________PP___ EP091971 22.6999 -118.808 TS 45 0 22.6999 -118.808 TC 45 22.7444 -118.778 2 12 291
1971212N12262 1971 82 EP MM ILSA 1971-08-06 06:00:00 TS 22.9173 -119.390 45 hurdat_epa main 694 692 O________OP___ hurdat_epa EP091971 22.9000 -119.400 TS 45 0 22.9000 -119.400 TC 45 22.9863 -119.350 2 11 293
1971212N12262 1971 82 EP MM ILSA 1971-08-06 09:00:00 TS 23.1617 -119.944 main 702 702 P________PP___ EP091971 23.1496 -119.950 TS 45 0 23.1496 -119.950 TC 45 23.2101 -119.922 2 11 295
1971212N12262 1971 82 EP MM ILSA 1971-08-06 12:00:00 TS 23.4000 -120.500 45 hurdat_epa main 731 731 O________OO___ hurdat_epa EP091971 23.4000 -120.500 TS 45 0 23.4000 -120.500 TC 45 23.4000 -120.500 2 12 294
1971212N12262 1971 82 EP MM ILSA 1971-08-06 15:00:00 TS 23.6261 -121.101 main 763 763 P________PP___ EP091971 23.6374 -121.092 TS 35 0 23.6374 -121.092 TC 35 23.5811 -121.137 2 12 289
1971212N12262 1971 82 EP MM ILSA 1971-08-06 18:00:00 TS 23.7842 -121.715 25 hurdat_epa main 799 799 O________OP___ hurdat_epa EP091971 23.8000 -121.700 TD 25 -1 23.8000 -121.700 TC 25 23.7208 -121.774 2 12 281
1971212N12262 1971 82 EP MM ILSA 1971-08-06 21:00:00 TS 23.8421 -122.345 main 850 850 P________PP___ EP091971 23.8526 -122.338 TD 25 -1 23.8526 -122.338 TC 25 23.8000 -122.374 2 11 271
1971212N12262 1971 82 EP MM ILSA 1971-08-07 00:00:00 TS 23.8000 -122.900 25 hurdat_epa main 902 902 O________OO___ hurdat_epa EP091971 23.8000 -122.900 TD 25 -1 23.8000 -122.900 TC 25 23.8000 -122.900 6 9 260
1971212N12262 1971 82 EP MM ILSA 1971-08-07 03:00:00 TS 23.6818 -123.296 main 943 943 P________PP___ EP091971 23.6796 -123.295 TD 25 -1 23.6796 -123.295 TC 25 23.6905 -123.301 6 7 245
1971212N12262 1971 82 EP MM ILSA 1971-08-07 06:00:00 TS 23.5017 -123.605 25 hurdat_epa main 980 980 O________OP___ hurdat_epa EP091971 23.5000 -123.600 TD 25 -1 23.5000 -123.600 TC 25 23.5083 -123.626 6 7 235
1971212N12262 1971 82 EP MM ILSA 1971-08-07 09:00:00 TS 23.2933 -123.903 main 1018 1018 P________PP___ EP091971 23.2924 -123.900 TD 25 -1 23.2924 -123.900 TC 25 23.2970 -123.913 6 7 234
1971212N12262 1971 82 EP MM ILSA 1971-08-07 12:00:00 TS 23.1000 -124.200 25 hurdat_epa main 1056 1056 O________OO___ hurdat_epa EP091971 23.1000 -124.200 TD 25 -1 23.1000 -124.200 TC 25 23.1000 -124.200 6 7 242
1971212N12262 1971 82 EP MM ILSA 1971-08-07 15:00:00 TS 22.9836 -124.542 main 1088 1088 P________PP___ EP091971 22.9850 -124.542 TD 25 -1 22.9850 -124.542 TC 25 22.9782 -124.538 6 7 252
1971212N12262 1971 82 EP MM ILSA 1971-08-07 18:00:00 TS 22.8954 -124.897 25 hurdat_epa main 1129 1129 O________OP___ hurdat_epa EP091971 22.9000 -124.900 TD 25 -1 22.9000 -124.900 TC 25 22.8772 -124.884 6 7 254
1971212N12262 1971 82 EP MM ILSA 1971-08-07 21:00:00 TS 22.7975 -125.248 main 1161 1161 P________PP___ EP091971 22.7999 -125.250 TD 25 -1 22.7999 -125.250 TC 25 22.7876 -125.238 6 7 253
1971212N12262 1971 82 EP MM ILSA 1971-08-08 00:00:00 TS 22.7000 -125.600 25 hurdat_epa main 1202 1202 O________OO___ hurdat_epa EP091971 22.7000 -125.600 TD 25 -1 22.7000 -125.600 TC 25 22.7000 -125.600 6 7 253
1971212N12262 1971 82 EP MM ILSA 1971-08-08 03:00:00 TS 22.6013 -125.948 main 1234 1234 P________PP___ EP091971 22.5999 -125.942 TD 25 -1 22.5999 -125.942 TC 25 22.6070 -125.969 6 7 253
1971212N12262 1971 82 EP MM ILSA 1971-08-08 06:00:00 TS 22.5013 -126.307 25 hurdat_epa main 1275 1275 O________OP___ hurdat_epa EP091971 22.5000 -126.300 TD 25 -1 22.5000 -126.300 TC 25 22.5082 -126.343 6 8 254
1971212N12262 1971 82 EP MM ILSA 1971-08-08 09:00:00 TS 22.3875 -126.749 main 1317 1317 P________PP___ EP091971 22.3852 -126.753 TD 25 -1 22.3852 -126.753 TC 25 22.4054 -126.721 6 8 255
1971212N12262 1971 82 EP MM ILSA 1971-08-08 12:00:00 TS 22.3000 -127.100 25 hurdat_epa main 1358 1358 O________OO___ hurdat_epa EP091971 22.3000 -127.100 TD 25 -1 22.3000 -127.100 TC 25 22.3000 -127.100 6 4 255
1971212N12262 1971 82 EP MM ILSA 1971-08-08 15:00:00 TS 22.2799 -127.182 main 1367 1358 P________P____ EP091971 22.2799 -127.182 TD 25 -1 22.2799 -127.182 TC 25 6 0 0
1971212N12262 1971 82 EP MM ILSA 1971-08-08 18:00:00 TS 22.3000 -127.100 25 hurdat_epa main 1358 O________O____ hurdat_epa EP091971 22.3000 -127.100 TD 25 -1 22.3000 -127.100 TC 25 6 2 75

IBTrACS Databaseについて

本データベースは、米国NOAAが公開する1842年以降の世界の熱帯低気圧のベストトラックデータアーカイブInternational Best Track Archive for Climate Stewardship (IBTrACS)を、ウェブで閲覧しやすい形式に変換したものです。

最終更新日:2021-12-08